Nashville, TN (37208)

6:55 PM CST on November 22, 2014 (GMT -0600)
Jordan Ridge @ Eaton's Creek | Change Station
CLOSE
Current Station
Personal Weather Station
Location: Nashville, TN
Elevation: 535 ft
Nearby Weather Stations

Elev 535 ft 36.22 °N, 86.87 °W | Updated 9 minutes ago

Mostly Cloudy
Mostly Cloudy
59.1 °F
Feels Like 59.1 °F
N
0.0
Wind Variable Wind from South
Gusts 1.0 mph

Today
High -- | Low -- °F
--% Chance of Precip.
Yesterday
High -- | Low -- °F
Precip. -- in
6:31 AM 4:35 PM
New Moon, 0% visible
Pressure 30.12 in
Visibility 10.0 miles
Clouds Few 8500 ft
Mostly Cloudy 10000 ft
Dew Point 43 °F
Humidity 56%
Rainfall 0.00 in
Snow Depth Not available.
UV 0 out of 12
Pollen 1.00 out of 12
Air Quality Not available.
Flu Activity Not available.
METAR KBNA 222353Z 17008KT 10SM FEW085 BKN100 16/04 A3012 RMK AO2 SLP200 T01560044 10189 20156 56014

More Conditions Fewer Conditions

Pressure 30.12 in
Visibility 10.0 miles
Clouds Few 8500 ft
Mostly Cloudy 10000 ft
Dew Point 43 °F
Humidity 56%
Rainfall 0.00 in
Snow Depth Not available.
UV 0 out of 12
Pollen 1.00 out of 12
Air Quality Not available.
Flu Activity Not available.
METAR KBNA 222353Z 17008KT 10SM FEW085 BKN100 16/04 A3012 RMK AO2 SLP200 T01560044 10189 20156 56014

More Conditions Fewer Conditions

10-Day Weather Forecast

Almanac

Astronomy

Nov. 22, 2014 Rise Set
Actual Time
Civil Twilight
Nautical Twilight
Astronomical Twilight
Moon
Length of Visible Light
Length of Day
Tomorrow will be .
, % of the Moon is Illuminated

Today's Extremes

State Highs State Lows

Community

WunderPhotos

Upload Photos

1,772,938 photos uploaded!

WunderBlogs® & News

Nearby

Air Quality

  Air Quality AQ Index Pollutant
Not available.

Snow Depth

Station Depth Elevation

Earthquake Activity

City Distance Mag. Time & Date
Minimum magnitude displayed is 2.5.

Coastal Water Temperatures

Place Temperature

Nearby Weather Stations